createdAt,value
2024-01-29T00:00:12.208Z,51.78
2024-01-29T00:02:38.864Z,52.04
2024-01-29T00:05:05.701Z,51.44
2024-01-29T00:07:32.225Z,51.83
2024-01-29T00:09:58.790Z,52.20
2024-01-29T00:12:25.701Z,51.57
2024-01-29T00:14:52.431Z,51.39
2024-01-29T00:17:19.230Z,51.22
2024-01-29T00:19:46.005Z,51.18
2024-01-29T00:22:12.569Z,51.42
2024-01-29T00:24:39.131Z,51.51
2024-01-29T00:27:05.666Z,51.56
2024-01-29T00:29:32.184Z,51.34
2024-01-29T00:31:59.468Z,51.49
2024-01-29T00:34:26.083Z,51.55
2024-01-29T00:36:52.704Z,51.69
2024-01-29T00:39:19.846Z,51.50
2024-01-29T00:41:46.427Z,51.23
2024-01-29T00:44:12.938Z,51.45
2024-01-29T00:46:40.226Z,51.35
2024-01-29T00:49:07.987Z,51.13
2024-01-29T00:51:34.828Z,51.03
2024-01-29T00:54:01.351Z,51.48
2024-01-29T00:56:27.830Z,50.63
2024-01-29T00:58:54.295Z,50.31
2024-01-29T01:01:20.936Z,50.53
2024-01-29T01:03:47.573Z,49.99
2024-01-29T01:06:14.170Z,49.49
2024-01-29T01:08:40.833Z,49.46
2024-01-29T01:11:08.392Z,49.94
2024-01-29T01:13:34.985Z,50.24
2024-01-29T01:16:01.579Z,52.20
2024-01-29T01:18:28.318Z,50.80
2024-01-29T01:20:54.868Z,50.67
2024-01-29T01:23:21.370Z,50.30
2024-01-29T01:25:47.914Z,50.07
2024-01-29T01:28:14.490Z,50.11
2024-01-29T01:30:41.166Z,49.93
2024-01-29T01:33:07.803Z,50.06
2024-01-29T01:35:34.336Z,51.72
2024-01-29T01:38:00.857Z,50.66
2024-01-29T01:40:27.591Z,49.74
2024-01-29T01:42:54.198Z,49.68
2024-01-29T01:45:20.855Z,49.64
2024-01-29T01:47:47.362Z,49.52
2024-01-29T01:50:13.852Z,50.10
2024-01-29T01:52:41.319Z,49.66
2024-01-29T01:55:08.271Z,49.92
2024-01-29T01:57:34.926Z,50.58
2024-01-29T02:00:01.561Z,50.04
2024-01-29T02:02:28.081Z,49.96
2024-01-29T02:04:54.644Z,51.35
2024-01-29T02:07:21.333Z,50.02
2024-01-29T02:09:48.267Z,49.65
2024-01-29T02:12:14.764Z,49.28
2024-01-29T02:14:41.323Z,49.52
2024-01-29T02:17:07.896Z,49.42
2024-01-29T02:19:34.679Z,49.57
2024-01-29T02:22:01.301Z,48.83
2024-01-29T02:24:28.107Z,49.59
2024-01-29T02:26:54.705Z,49.17
2024-01-29T02:29:21.224Z,49.42
2024-01-29T02:31:47.717Z,49.42
2024-01-29T02:34:14.653Z,49.23
2024-01-29T02:36:41.711Z,49.26
2024-01-29T02:39:09.233Z,49.64
2024-01-29T02:41:36.262Z,49.46
2024-01-29T02:44:02.939Z,50.77
2024-01-29T02:46:29.486Z,51.36
2024-01-29T02:48:56.122Z,51.24
2024-01-29T02:51:22.788Z,51.22
2024-01-29T02:53:49.336Z,50.77
2024-01-29T02:56:15.860Z,50.33
2024-01-29T02:58:42.361Z,50.69
2024-01-29T03:01:10.293Z,50.83
2024-01-29T03:03:37.158Z,50.49
2024-01-29T03:06:04.048Z,50.40
2024-01-29T03:08:30.594Z,50.16
2024-01-29T03:10:57.145Z,50.26
2024-01-29T03:13:23.676Z,50.12
2024-01-29T03:15:50.804Z,50.98
2024-01-29T03:18:17.540Z,51.30
2024-01-29T03:20:44.222Z,49.37
2024-01-29T03:23:11.549Z,50.54
2024-01-29T03:25:38.199Z,51.14
2024-01-29T03:28:05.536Z,50.97
2024-01-29T03:30:32.199Z,51.73
2024-01-29T03:32:58.857Z,51.74
2024-01-29T03:35:25.407Z,50.36
2024-01-29T03:37:51.992Z,50.83
2024-01-29T03:40:19.133Z,51.25
2024-01-29T03:42:45.733Z,51.39
2024-01-29T03:45:12.269Z,50.70
2024-01-29T03:47:38.816Z,50.33
2024-01-29T03:50:06.930Z,49.86
2024-01-29T03:52:33.609Z,50.46
2024-01-29T03:55:00.411Z,48.91
2024-01-29T03:57:27.146Z,49.94
2024-01-29T03:59:57.561Z,50.55
2024-01-29T04:02:25.105Z,50.29
2024-01-29T04:04:52.543Z,50.66
2024-01-29T04:07:19.452Z,49.84
2024-01-29T04:09:46.139Z,48.59
2024-01-29T04:12:12.761Z,49.33
2024-01-29T04:14:39.265Z,49.51
2024-01-29T04:17:07.696Z,49.49
2024-01-29T04:19:34.402Z,49.23
2024-01-29T04:22:01.126Z,49.25
2024-01-29T04:24:29.609Z,49.37
2024-01-29T04:26:56.516Z,49.28
2024-01-29T04:29:23.126Z,49.75
2024-01-29T04:31:49.831Z,49.74
2024-01-29T04:34:16.506Z,50.47
2024-01-29T04:36:43.130Z,50.59
2024-01-29T04:39:10.130Z,50.47
2024-01-29T04:41:36.740Z,50.04
2024-01-29T04:44:03.914Z,50.34
2024-01-29T04:46:30.430Z,50.64
2024-01-29T04:48:57.123Z,50.80
2024-01-29T04:51:24.282Z,49.60
2024-01-29T04:53:50.922Z,50.38
2024-01-29T04:56:17.594Z,49.99
2024-01-29T04:58:44.193Z,50.26
2024-01-29T05:01:11.247Z,49.87
2024-01-29T05:03:38.034Z,49.88
2024-01-29T05:06:05.354Z,49.33
2024-01-29T05:08:31.885Z,50.00
2024-01-29T05:10:58.445Z,49.90
2024-01-29T05:13:25.022Z,49.77
2024-01-29T05:15:51.649Z,49.69
2024-01-29T05:18:18.468Z,50.35
2024-01-29T05:20:44.991Z,49.79
2024-01-29T05:23:11.472Z,49.75
2024-01-29T05:25:37.957Z,49.64
2024-01-29T05:28:04.808Z,49.34
2024-01-29T05:30:31.394Z,49.27
2024-01-29T05:32:58.019Z,49.87
2024-01-29T05:35:24.896Z,49.84
2024-01-29T05:37:51.426Z,48.90
2024-01-29T05:40:18.117Z,49.62
2024-01-29T05:42:44.725Z,49.89
2024-01-29T05:45:11.255Z,49.81
2024-01-29T05:47:38.402Z,49.90
2024-01-29T05:50:07.163Z,49.58
2024-01-29T05:52:33.896Z,49.49
2024-01-29T05:55:00.556Z,49.71
2024-01-29T05:57:27.276Z,49.64
2024-01-29T05:59:54.235Z,49.43
2024-01-29T06:02:20.918Z,50.04
2024-01-29T06:04:47.680Z,50.72
2024-01-29T06:07:14.290Z,51.09
2024-01-29T06:09:40.887Z,50.81
2024-01-29T06:12:07.644Z,50.72
2024-01-29T06:14:34.183Z,50.94
2024-01-29T06:17:00.808Z,50.60
2024-01-29T06:19:27.481Z,50.83
2024-01-29T06:21:54.187Z,51.19
2024-01-29T06:24:20.791Z,51.45
2024-01-29T06:26:49.137Z,51.08
2024-01-29T06:29:16.427Z,51.46
2024-01-29T06:31:43.059Z,51.72
2024-01-29T06:34:10.153Z,51.83
2024-01-29T06:36:36.959Z,52.01
2024-01-29T06:39:04.128Z,52.25
2024-01-29T06:41:32.184Z,51.96
2024-01-29T06:43:59.120Z,52.16
2024-01-29T06:46:26.156Z,52.29
2024-01-29T06:48:52.828Z,52.35
2024-01-29T06:51:19.467Z,51.81
2024-01-29T06:53:46.099Z,51.02
2024-01-29T06:56:12.662Z,50.38
2024-01-29T06:58:39.260Z,50.70
2024-01-29T07:01:06.638Z,49.52
2024-01-29T07:03:33.819Z,50.58
2024-01-29T07:06:00.709Z,50.36
2024-01-29T07:08:27.325Z,50.38
2024-01-29T07:10:53.888Z,50.23
2024-01-29T07:13:20.408Z,50.43
2024-01-29T07:15:47.049Z,50.15
2024-01-29T07:18:13.569Z,49.52
2024-01-29T07:20:41.251Z,50.29
2024-01-29T07:23:08.793Z,48.99
2024-01-29T07:25:35.901Z,50.41
2024-01-29T07:28:05.667Z,49.14
2024-01-29T07:30:32.582Z,49.29
2024-01-29T07:32:59.565Z,49.12
2024-01-29T07:35:26.354Z,49.15
2024-01-29T07:37:53.801Z,50.09
2024-01-29T07:40:23.252Z,49.79
2024-01-29T07:42:50.469Z,49.44
2024-01-29T07:45:17.526Z,50.00
2024-01-29T07:47:45.632Z,50.14
2024-01-29T07:50:12.320Z,50.51
2024-01-29T07:52:38.853Z,50.93
2024-01-29T07:55:05.868Z,50.44
2024-01-29T07:57:32.523Z,50.73
2024-01-29T07:59:59.089Z,50.81
2024-01-29T08:02:25.783Z,50.71
2024-01-29T08:04:52.510Z,50.30
2024-01-29T08:07:19.238Z,50.06
2024-01-29T08:09:46.433Z,49.73
2024-01-29T08:12:13.052Z,49.75
2024-01-29T08:14:40.139Z,48.99
2024-01-29T08:17:07.065Z,49.45
2024-01-29T08:19:33.770Z,50.37
2024-01-29T08:22:00.504Z,48.94
2024-01-29T08:24:28.010Z,49.73
2024-01-29T08:26:54.626Z,49.22
2024-01-29T08:29:23.518Z,47.08
2024-01-29T08:31:50.057Z,48.58
2024-01-29T08:40:01.847Z,47.89
2024-01-29T08:42:28.398Z,49.00
2024-01-29T08:45:01.188Z,48.93
2024-01-29T08:47:36.785Z,48.87
2024-01-29T08:50:12.745Z,48.58
2024-01-29T08:52:49.032Z,47.79
2024-01-29T08:55:25.910Z,46.88
2024-01-29T09:04:34.019Z,45.77
2024-01-29T09:07:30.566Z,45.48
2024-01-29T09:09:57.751Z,46.86
2024-01-29T09:12:29.245Z,46.98
2024-01-29T09:15:04.141Z,46.01
2024-01-29T09:17:47.302Z,46.03
2024-01-29T09:20:15.562Z,47.24
2024-01-29T09:22:48.656Z,46.78
2024-01-29T09:25:15.424Z,46.40
2024-01-29T09:27:42.110Z,47.80
2024-01-29T09:36:00.155Z,46.79
2024-01-29T09:38:27.014Z,46.67
2024-01-29T09:41:08.208Z,46.28
2024-01-29T09:44:08.740Z,46.92
2024-01-29T09:47:06.959Z,46.62
2024-01-29T09:49:49.290Z,48.08
2024-01-29T09:52:16.490Z,49.91
2024-01-29T09:54:43.404Z,48.75
2024-01-29T09:57:20.138Z,49.29
2024-01-29T09:59:46.629Z,48.05
2024-01-29T10:02:29.099Z,48.76
2024-01-29T10:04:56.505Z,48.59
2024-01-29T10:07:24.051Z,47.85
2024-01-29T10:09:53.903Z,47.56
2024-01-29T10:12:21.702Z,48.36
2024-01-29T10:14:48.238Z,48.19
2024-01-29T10:17:14.772Z,47.33
2024-01-29T10:19:44.515Z,50.12
2024-01-29T10:22:14.421Z,47.50
2024-01-29T10:24:41.146Z,48.61
2024-01-29T10:27:08.456Z,48.12
2024-01-29T10:29:48.471Z,49.39
2024-01-29T10:32:15.365Z,49.18
2024-01-29T10:34:42.320Z,49.31
2024-01-29T10:37:08.952Z,49.01
2024-01-29T10:39:43.527Z,48.69
2024-01-29T10:42:13.875Z,49.68
2024-01-29T10:44:41.143Z,47.98
2024-01-29T10:47:20.072Z,49.22
2024-01-29T10:49:46.749Z,49.79
2024-01-29T10:52:13.932Z,48.35
2024-01-29T10:54:40.730Z,49.10
2024-01-29T10:57:11.027Z,48.13
2024-01-29T10:59:39.911Z,49.31
2024-01-29T11:02:06.606Z,48.12
2024-01-29T11:04:36.299Z,48.11
2024-01-29T11:07:07.614Z,48.95
2024-01-29T11:09:34.209Z,48.40
2024-01-29T11:12:00.708Z,49.26
2024-01-29T11:14:27.326Z,49.31
2024-01-29T11:16:53.950Z,48.79
2024-01-29T11:19:25.361Z,48.21
2024-01-29T11:21:52.148Z,47.79
2024-01-29T11:24:22.166Z,46.81
2024-01-29T11:26:48.799Z,46.74
2024-01-29T11:29:19.395Z,46.87
2024-01-29T11:31:47.048Z,45.85
2024-01-29T11:34:15.284Z,47.26
2024-01-29T11:36:41.959Z,45.38
2024-01-29T11:39:09.983Z,46.29
2024-01-29T11:41:37.145Z,45.61
2024-01-29T11:44:04.143Z,45.45
2024-01-29T11:46:30.770Z,45.98
2024-01-29T11:48:57.904Z,44.93
2024-01-29T11:51:27.012Z,45.07
2024-01-29T11:53:53.529Z,44.33
2024-01-29T11:56:20.450Z,44.80
2024-01-29T11:58:59.349Z,46.06
2024-01-29T12:01:26.044Z,46.64
2024-01-29T12:03:52.736Z,45.14
2024-01-29T12:06:19.410Z,46.07
2024-01-29T12:08:49.919Z,45.53
2024-01-29T12:11:16.769Z,44.68
2024-01-29T12:13:43.431Z,44.72
2024-01-29T12:16:10.224Z,45.52
2024-01-29T12:18:39.451Z,45.30
2024-01-29T12:21:07.065Z,44.63
2024-01-29T12:23:33.601Z,44.21
2024-01-29T12:26:00.237Z,44.47
2024-01-29T12:28:27.793Z,44.73
2024-01-29T12:31:08.083Z,44.53
2024-01-29T12:33:36.124Z,43.78
2024-01-29T12:36:13.498Z,44.54
2024-01-29T12:38:41.054Z,45.05
2024-01-29T12:41:07.860Z,45.03
2024-01-29T12:43:35.115Z,45.11
2024-01-29T12:46:12.859Z,45.09
2024-01-29T12:48:39.945Z,44.08
2024-01-29T12:51:13.640Z,44.70
2024-01-29T12:53:41.917Z,44.56
2024-01-29T12:56:14.382Z,45.07
2024-01-29T12:58:47.965Z,44.05
2024-01-29T13:01:15.708Z,44.08
2024-01-29T13:03:42.371Z,44.00
2024-01-29T13:06:10.483Z,43.80
2024-01-29T13:08:37.179Z,43.59
2024-01-29T13:11:03.741Z,43.66
2024-01-29T13:13:30.401Z,43.66
2024-01-29T13:15:57.190Z,43.61
2024-01-29T13:18:26.493Z,42.92
2024-01-29T13:20:53.179Z,43.44
2024-01-29T13:23:19.711Z,44.02
2024-01-29T13:25:46.964Z,44.14
2024-01-29T13:28:13.570Z,43.97
2024-01-29T13:30:40.338Z,42.96
2024-01-29T13:33:08.021Z,43.48
2024-01-29T13:35:34.774Z,43.09
2024-01-29T13:38:01.281Z,42.88
2024-01-29T13:40:27.885Z,43.49
2024-01-29T13:42:56.105Z,43.91
2024-01-29T13:45:22.853Z,43.42
2024-01-29T13:47:51.024Z,42.97
2024-01-29T13:50:17.709Z,43.43
2024-01-29T13:52:44.287Z,44.04
2024-01-29T13:55:10.943Z,44.02
2024-01-29T13:57:37.488Z,44.41
2024-01-29T14:00:05.443Z,43.81
2024-01-29T14:02:35.996Z,43.94
2024-01-29T14:05:05.588Z,43.85
2024-01-29T14:07:33.421Z,44.12
2024-01-29T14:10:01.145Z,43.38
2024-01-29T14:12:27.928Z,44.21
2024-01-29T14:14:56.517Z,44.31
2024-01-29T14:17:23.510Z,42.34
2024-01-29T14:19:51.481Z,42.24
2024-01-29T14:22:21.537Z,43.13
2024-01-29T14:24:48.105Z,43.26
2024-01-29T14:27:14.675Z,43.34
2024-01-29T14:29:41.211Z,42.79
2024-01-29T14:32:07.754Z,43.28
2024-01-29T14:34:34.478Z,43.15
2024-01-29T14:37:01.270Z,43.44
2024-01-29T14:39:28.013Z,43.43
2024-01-29T14:41:54.482Z,43.25
2024-01-29T14:44:21.269Z,43.13
2024-01-29T14:46:47.773Z,43.54
2024-01-29T14:49:17.435Z,44.04
2024-01-29T14:51:44.887Z,43.21
2024-01-29T14:54:14.368Z,44.31
2024-01-29T14:56:41.089Z,43.95
2024-01-29T14:59:07.919Z,43.21
2024-01-29T15:01:37.152Z,43.95
2024-01-29T15:04:07.205Z,43.27
2024-01-29T15:06:35.761Z,43.76
2024-01-29T15:09:04.828Z,43.43
2024-01-29T15:11:31.487Z,43.56
2024-01-29T15:13:58.173Z,43.37
2024-01-29T15:16:24.861Z,43.35
2024-01-29T15:18:52.378Z,42.89
2024-01-29T15:21:19.260Z,44.30
2024-01-29T15:23:45.797Z,43.54
2024-01-29T15:26:14.359Z,43.80
2024-01-29T15:28:40.925Z,43.86
2024-01-29T15:31:07.547Z,44.64
2024-01-29T15:33:34.989Z,44.56
2024-01-29T15:36:01.948Z,45.30
2024-01-29T15:38:28.539Z,45.22
2024-01-29T15:40:55.270Z,45.42
2024-01-29T15:43:22.158Z,45.64
2024-01-29T15:45:48.843Z,45.47
2024-01-29T15:48:15.945Z,45.37
2024-01-29T15:50:42.744Z,45.23
2024-01-29T15:53:09.326Z,45.75
2024-01-29T15:55:35.957Z,45.48
2024-01-29T15:58:02.746Z,45.54
2024-01-29T16:00:34.457Z,44.79
2024-01-29T16:03:02.226Z,45.61
2024-01-29T16:05:28.857Z,45.36
2024-01-29T16:07:55.513Z,45.68
2024-01-29T16:10:22.168Z,46.48
2024-01-29T16:12:48.785Z,46.94
2024-01-29T16:15:16.158Z,46.66
2024-01-29T16:17:42.760Z,47.18
2024-01-29T16:20:09.623Z,47.10
2024-01-29T16:22:36.382Z,47.45
2024-01-29T16:25:03.065Z,47.77
2024-01-29T16:27:29.573Z,47.89
2024-01-29T16:29:56.931Z,48.14
2024-01-29T16:32:23.501Z,48.20
2024-01-29T16:34:50.127Z,48.45
2024-01-29T16:37:17.060Z,48.82
2024-01-29T16:39:43.777Z,49.11
2024-01-29T16:42:10.534Z,49.61
2024-01-29T16:44:37.038Z,49.27
2024-01-29T16:47:03.609Z,49.35
2024-01-29T16:49:30.170Z,49.59
2024-01-29T16:51:56.838Z,49.76
2024-01-29T16:54:24.472Z,49.47
2024-01-29T16:56:51.915Z,50.03
2024-01-29T16:59:18.584Z,49.86
2024-01-29T17:01:46.800Z,50.17
2024-01-29T17:04:13.808Z,50.20
2024-01-29T17:06:40.569Z,50.41
2024-01-29T17:09:11.752Z,50.59
2024-01-29T17:11:38.667Z,50.86
2024-01-29T17:14:05.825Z,51.18
2024-01-29T17:16:32.517Z,51.20
2024-01-29T17:18:59.256Z,50.97
2024-01-29T17:21:25.940Z,50.92
2024-01-29T17:23:52.514Z,50.99
2024-01-29T17:26:19.630Z,50.43
2024-01-29T17:28:46.273Z,50.77
2024-01-29T17:31:12.852Z,50.50
2024-01-29T17:33:39.589Z,50.56
2024-01-29T17:36:06.517Z,50.60
2024-01-29T17:38:33.151Z,50.25
2024-01-29T17:40:59.929Z,50.27
2024-01-29T17:43:26.869Z,50.34
2024-01-29T17:45:53.495Z,50.12
2024-01-29T17:48:20.458Z,50.42
2024-01-29T17:50:47.220Z,50.26
2024-01-29T17:53:13.850Z,50.05
2024-01-29T17:55:40.371Z,50.06
2024-01-29T17:58:06.972Z,50.44
2024-01-29T18:00:33.670Z,50.45
2024-01-29T18:03:00.454Z,49.36
2024-01-29T18:05:27.224Z,50.16
2024-01-29T18:07:53.892Z,49.85
2024-01-29T18:10:20.614Z,49.90
2024-01-29T18:12:47.198Z,49.90
2024-01-29T18:15:13.784Z,49.95
2024-01-29T18:17:40.465Z,49.88
2024-01-29T18:20:08.229Z,49.47
2024-01-29T18:22:34.836Z,49.50
2024-01-29T18:25:01.527Z,49.38
2024-01-29T18:27:28.033Z,49.71
2024-01-29T18:29:54.610Z,49.75
2024-01-29T18:32:21.154Z,49.46
2024-01-29T18:34:47.999Z,49.90
2024-01-29T18:37:14.726Z,49.66
2024-01-29T18:39:41.286Z,49.80
2024-01-29T18:42:08.369Z,49.89
2024-01-29T18:44:35.057Z,49.53
2024-01-29T18:47:01.977Z,49.71
2024-01-29T18:49:28.617Z,49.54
2024-01-29T18:52:02.838Z,49.13
2024-01-29T18:54:29.342Z,49.03
2024-01-29T18:56:55.820Z,49.19
2024-01-29T18:59:22.300Z,49.19
2024-01-29T19:01:49.054Z,49.59
2024-01-29T19:04:15.752Z,49.53
2024-01-29T19:06:42.532Z,49.74
2024-01-29T19:09:10.931Z,49.52
2024-01-29T19:11:41.200Z,48.68
2024-01-29T19:14:07.854Z,49.68
2024-01-29T19:16:34.399Z,49.51
2024-01-29T19:19:01.106Z,49.08
2024-01-29T19:21:27.721Z,48.84
2024-01-29T19:23:54.226Z,48.84
2024-01-29T19:26:20.718Z,48.96
2024-01-29T19:28:47.225Z,48.89
2024-01-29T19:31:15.851Z,49.25
2024-01-29T19:33:43.218Z,48.84
2024-01-29T19:36:09.839Z,48.83
2024-01-29T19:38:36.381Z,48.81
2024-01-29T19:41:03.723Z,48.96
2024-01-29T19:43:30.374Z,49.66
2024-01-29T19:45:57.332Z,49.90
2024-01-29T19:48:23.986Z,49.22
2024-01-29T19:50:50.586Z,49.23
2024-01-29T19:53:17.107Z,49.41
2024-01-29T19:55:43.597Z,49.20
2024-01-29T19:58:10.317Z,49.10
2024-01-29T20:00:36.918Z,49.87
2024-01-29T20:03:03.683Z,49.51
2024-01-29T20:05:30.330Z,48.94
2024-01-29T20:07:56.982Z,48.62
2024-01-29T20:10:23.777Z,49.26
2024-01-29T20:12:51.151Z,48.89
2024-01-29T20:15:17.744Z,49.00
2024-01-29T20:17:44.289Z,48.54
2024-01-29T20:20:12.275Z,47.95
2024-01-29T20:22:38.909Z,48.27
2024-01-29T20:25:05.832Z,47.80
2024-01-29T20:27:32.358Z,48.85
2024-01-29T20:29:58.965Z,48.53
2024-01-29T20:32:26.002Z,48.82
2024-01-29T20:34:52.913Z,48.70
2024-01-29T20:37:19.718Z,48.65
2024-01-29T20:39:46.385Z,49.09
2024-01-29T20:42:12.997Z,48.91
2024-01-29T20:44:39.588Z,48.72
2024-01-29T20:47:06.227Z,48.68
2024-01-29T20:49:33.599Z,48.97
2024-01-29T20:52:01.652Z,49.46
2024-01-29T20:54:28.348Z,49.13
2024-01-29T20:57:00.991Z,49.25
2024-01-29T20:59:28.293Z,49.43
2024-01-29T21:01:54.928Z,49.02
2024-01-29T21:04:22.427Z,48.59
2024-01-29T21:06:49.400Z,48.65
2024-01-29T21:09:15.931Z,49.23
2024-01-29T21:11:43.371Z,49.05
2024-01-29T21:14:11.721Z,48.74
2024-01-29T21:16:38.258Z,48.31
2024-01-29T21:19:04.866Z,48.80
2024-01-29T21:21:32.494Z,48.98
2024-01-29T21:24:00.043Z,48.24
2024-01-29T21:26:27.095Z,48.67
2024-01-29T21:28:53.897Z,48.65
2024-01-29T21:31:20.601Z,49.08
2024-01-29T21:33:47.276Z,48.19
2024-01-29T21:36:15.794Z,48.62
2024-01-29T21:38:42.298Z,48.52
2024-01-29T21:41:08.808Z,48.27
2024-01-29T21:43:35.334Z,48.21
2024-01-29T21:46:01.961Z,48.92
2024-01-29T21:48:28.632Z,48.05
2024-01-29T21:50:55.251Z,48.26
2024-01-29T21:53:21.752Z,48.02
2024-01-29T21:55:48.589Z,49.26
2024-01-29T21:58:15.159Z,48.92
2024-01-29T22:00:41.764Z,49.04
2024-01-29T22:03:08.321Z,48.91
2024-01-29T22:05:34.912Z,48.98
2024-01-29T22:08:01.586Z,49.19
2024-01-29T22:10:28.325Z,49.27
2024-01-29T22:12:54.996Z,49.36
2024-01-29T22:15:21.562Z,49.44
2024-01-29T22:17:48.176Z,49.77
2024-01-29T22:20:15.015Z,49.37
2024-01-29T22:22:42.313Z,49.45
2024-01-29T22:25:08.961Z,49.61
2024-01-29T22:27:35.578Z,49.10
2024-01-29T22:30:02.107Z,49.27
2024-01-29T22:32:28.620Z,49.56
2024-01-29T22:34:55.262Z,49.22
2024-01-29T22:37:22.349Z,48.90
2024-01-29T22:39:48.969Z,49.52
2024-01-29T22:42:15.638Z,49.86
2024-01-29T22:44:42.161Z,49.83
2024-01-29T22:47:10.184Z,49.41
2024-01-29T22:49:36.886Z,49.68
2024-01-29T22:52:03.680Z,49.72
2024-01-29T22:54:30.181Z,49.89
2024-01-29T22:56:56.658Z,49.50
2024-01-29T22:59:23.184Z,49.78
2024-01-29T23:01:49.851Z,49.24
2024-01-29T23:04:16.696Z,49.60
2024-01-29T23:06:43.358Z,49.28
2024-01-29T23:09:10.264Z,48.91
2024-01-29T23:11:36.766Z,49.09
2024-01-29T23:14:03.251Z,49.69
2024-01-29T23:16:29.781Z,49.59
2024-01-29T23:18:56.273Z,50.25
2024-01-29T23:21:22.771Z,48.98
2024-01-29T23:23:49.394Z,49.50
2024-01-29T23:26:15.878Z,49.37
2024-01-29T23:28:42.392Z,49.08
2024-01-29T23:31:09.076Z,49.89
2024-01-29T23:33:35.659Z,50.00
2024-01-29T23:36:02.218Z,50.17
2024-01-29T23:38:28.767Z,49.96
2024-01-29T23:40:55.401Z,50.13
2024-01-29T23:43:22.507Z,50.00
2024-01-29T23:45:49.280Z,49.96
2024-01-29T23:48:16.022Z,50.33
2024-01-29T23:50:42.764Z,50.37
2024-01-29T23:53:09.250Z,50.18
2024-01-29T23:55:35.750Z,50.08
2024-01-29T23:58:04.281Z,50.33
